メインページ
METAR-TAF:

METAR-TAF

空港 :

ポートオブスペイン, トリニダード島, トリニダード・トバゴ

緯度: 10-37N, 経度: 061-21W, 海抜: 12m

現時点の気象観測

当レポートは22分前の23:00(UTC)に作成
東/南東の風 5kt
気温 28°C
湿度 79%
気圧 1012 hPa
視程10km以上
高度2000ftの雲はほとんどない

METAR: TTPP 242300Z 12005KT 9999 FEW020 28/24 Q1012 NOSIG

時間: 19:22 (23:22 UTC)

予報

当レポートは7時間22分前の16:00(UTC)に作成
予報は24日の 18時(UTC)から 25日の 18時(UTC)まで有効
南東の風 10kt
視程10km以上
高度2200ftの雲は散在している
24日の 20時(UTC)から 25日の 02時(UTC)まで一時的に
視程: 8000m
高度1800ftの雲は散在している
にわか雨
24日の 23時(UTC)から 25日の 01時(UTC)まで徐々に
東/南東の風 5kt
高度1600ftの雲はほとんどない
高度3600ftの雲は散在している
25日の 06時(UTC)から 25日の 18時(UTC)まで一時的に
視程: 5000m
高度1500ftの千切れ雲あり
にわか雨
確率 30% :
25日の 08時(UTC)から 25日の 18時(UTC)まで一時的に
変向風 10kt、最大25ktの突風を伴う
視程: 2000m
高度1200ftの雲はほとんどない, 積乱雲.
高度1400ftの千切れ雲あり
激しい雷雨, 雨
25日の 11時(UTC)から 25日の 13時(UTC)まで徐々に
東/南東の風 10kt
高度1600ftの雲は散在している
高度3600ftの雲は散在している

TAF: TTPP 241600Z 2418/2518 13010KT 9999 SCT022 TEMPO 2420/2502 8000 SHRA SCT018 BECMG 2423/2501 11005KT FEW016 SCT036 TEMPO 2506/2518 5000 SHRA BKN015 PROB30 TEMPO 2508/2518 VRB10G25KT 2000 TSRA FEW012CB BKN014 BECMG 2511/2513 12010KT SCT016 SCT036

4,000以上の空港の気象観測と天気予報(METAR報とTAF報)

利用可能な観測所は地図上に黄色い丸と赤い丸で示す。

丸の上にカーソルを重ねると観測所名を参照できる。

次にクリックすると気象観測と天気予報を参照できる。

マップの切り替え:黒色「×」印の緑ボタンをクリックして拡大、「-」印の緑ボタンをクリックして縮小、緑色の三角印をクリックして隣りの地図に切り替え


METAR-TAF: